Time;durP1;ratioP1;P1;durP2;ratioP2;P2;SDS_P1;SDS_P2;PMS_P1;PMS_P2;Temp;Humidity;BMP_temperature;BMP_pressure;BME280_temperature;BME280_humidity;BME280_pressure;Samples;Min_cycle;Max_cycle;Signal;HPM_P1;HPM_P2
2021/09/03 00:01:04;;;;;;;9.57;6.15;;;15.40;71.90;;;14.23;72.80;96527.75;4960458;28;20059;-70
2021/09/03 00:03:30;;;;;;;7.45;6.00;;;15.40;71.70;;;14.22;72.15;96524.28;4958234;28;20490;-71
2021/09/03 00:05:56;;;;;;;7.68;6.50;;;15.40;71.80;;;14.22;72.74;96524.28;4951199;28;20124;-70
2021/09/03 00:08:22;;;;;;;8.30;6.63;;;15.30;72.00;;;14.18;72.68;96520.41;4945280;28;20039;-70
2021/09/03 00:10:47;;;;;;;8.55;6.22;;;15.30;72.10;;;14.19;73.60;96526.53;4972814;28;20449;-70
2021/09/03 00:13:13;;;;;;;9.30;6.80;;;15.30;72.30;;;14.19;73.40;96518.59;4966985;28;20063;-70
2021/09/03 00:15:39;;;;;;;8.75;6.35;;;15.30;71.90;;;14.18;72.70;96520.41;4960693;28;20063;-70
2021/09/03 00:18:05;;;;;;;7.85;6.45;;;15.30;72.10;;;14.18;73.63;96516.97;4957746;28;20133;-70
2021/09/03 00:20:30;;;;;;;8.90;6.25;;;15.30;72.10;;;14.15;72.50;96510.25;4961436;28;20122;-70
2021/09/03 00:22:56;;;;;;;7.43;6.45;;;15.40;72.10;;;14.15;72.83;96510.25;4944471;28;20710;-70
2021/09/03 00:25:22;;;;;;;7.35;6.03;;;15.30;72.20;;;14.16;72.65;96508.41;4946482;28;20061;-70
2021/09/03 00:27:47;;;;;;;9.57;6.68;;;15.30;72.20;;;14.16;72.91;96514.50;4965454;28;20035;-70
2021/09/03 00:30:13;;;;;;;9.25;6.90;;;15.30;72.00;;;14.12;74.07;96507.19;4962688;28;20046;-70
2021/09/03 00:32:39;;;;;;;9.57;7.20;;;15.30;72.40;;;14.07;73.82;96500.66;4942698;28;20096;-70
2021/09/03 00:35:06;;;;;;;9.02;6.75;;;15.20;72.30;;;14.10;74.95;96510.03;4966155;28;20121;-71
2021/09/03 00:37:32;;;;;;;11.73;6.70;;;15.20;72.30;;;14.08;74.25;96502.31;4963546;28;20045;-70
2021/09/03 00:39:58;;;;;;;11.77;6.70;;;15.20;72.50;;;14.05;73.74;96508.00;4964029;28;20486;-71
2021/09/03 00:42:23;;;;;;;8.13;6.35;;;15.10;72.60;;;14.02;74.30;96508.38;4968102;28;20054;-71
2021/09/03 00:44:49;;;;;;;9.30;7.03;;;15.10;72.60;;;14.01;73.61;96505.94;4963627;28;20035;-70
2021/09/03 00:47:15;;;;;;;7.75;6.32;;;15.10;72.70;;;13.98;74.42;96501.03;4965679;28;20473;-70
2021/09/03 00:49:41;;;;;;;8.48;6.38;;;15.10;72.60;;;13.99;73.97;96497.38;4968924;28;20494;-70
2021/09/03 00:52:07;;;;;;;8.82;6.05;;;15.10;72.80;;;13.98;74.28;96495.75;4972157;28;20032;-70
2021/09/03 00:54:33;;;;;;;9.20;6.13;;;15.20;72.70;;;13.98;73.87;96490.47;4954025;28;20336;-70
2021/09/03 00:56:59;;;;;;;8.27;6.53;;;15.10;72.70;;;13.97;74.06;96500.22;4971051;28;20119;-70
2021/09/03 00:59:25;;;;;;;8.88;6.25;;;15.10;72.60;;;13.97;73.57;96494.13;4967811;28;20035;-70
2021/09/03 01:01:51;;;;;;;7.82;6.03;;;15.10;72.50;;;13.98;74.62;96501.84;4964174;28;20054;-70
2021/09/03 01:04:16;;;;;;;9.00;6.35;;;15.10;72.90;;;13.96;73.10;96498.59;4956735;28;20137;-71
2021/09/03 01:06:42;;;;;;;9.05;6.65;;;15.10;72.60;;;13.92;73.12;96492.09;4952478;28;20046;-71
2021/09/03 01:09:08;;;;;;;8.93;6.35;;;15.10;72.70;;;13.91;73.20;96497.56;4939276;28;20126;-71
2021/09/03 01:11:33;;;;;;;7.07;5.70;;;15.10;72.80;;;13.89;74.51;96487.19;4960101;28;20046;-70
2021/09/03 01:13:59;;;;;;;9.60;6.85;;;15.00;72.90;;;13.86;73.77;96492.91;4966275;28;20523;-71
2021/09/03 01:16:25;;;;;;;7.90;6.55;;;15.00;73.00;;;13.85;74.55;96491.25;4970996;28;20522;-71
2021/09/03 01:18:51;;;;;;;7.75;6.35;;;15.00;73.10;;;13.83;74.40;96495.94;4968177;28;20125;-71
2021/09/03 01:21:17;;;;;;;8.13;6.13;;;15.00;73.10;;;13.83;74.40;96492.47;4935438;28;20055;-70
2021/09/03 01:23:42;;;;;;;6.90;5.95;;;14.90;73.10;;;13.75;73.71;96491.63;4963077;28;20099;-70
2021/09/03 01:26:08;;;;;;;8.10;5.88;;;14.90;73.10;;;13.74;74.34;96490.00;4957343;28;20106;-70
2021/09/03 01:28:34;;;;;;;8.15;6.63;;;14.90;73.30;;;13.72;74.94;96485.94;4969228;28;20138;-70
2021/09/03 01:31:00;;;;;;;10.52;6.53;;;14.80;73.50;;;13.71;74.69;96484.31;4952878;28;20039;-70
2021/09/03 01:33:25;;;;;;;10.43;6.80;;;14.90;73.60;;;13.69;74.36;96486.31;4964322;28;20085;-71
2021/09/03 01:35:51;;;;;;;11.32;6.25;;;14.80;73.70;;;13.63;75.06;96482.66;4966609;28;20063;-70
2021/09/03 01:38:17;;;;;;;10.45;6.75;;;14.80;73.70;;;13.62;75.10;96480.22;4944342;28;20142;-71
2021/09/03 01:40:43;;;;;;;7.63;5.95;;;14.80;73.70;;;13.55;75.23;96479.34;4964425;28;20101;-71
2021/09/03 01:43:08;;;;;;;8.23;6.63;;;14.70;73.90;;;13.54;75.18;96477.72;4945258;28;20570;-70
2021/09/03 01:45:34;;;;;;;9.25;6.68;;;14.60;74.10;;;13.49;74.91;96476.50;4968795;28;20406;-70
2021/09/03 01:48:00;;;;;;;11.13;7.28;;;14.60;74.20;;;13.47;75.01;96477.72;4968682;28;20585;-71
2021/09/03 01:50:25;;;;;;;10.75;7.20;;;14.60;74.20;;;13.40;75.72;96469.75;4968829;28;20523;-71
2021/09/03 01:52:51;;;;;;;8.02;6.75;;;14.50;74.30;;;13.35;75.73;96474.00;4967833;28;20501;-71
2021/09/03 01:55:17;;;;;;;9.68;7.13;;;14.50;74.50;;;13.33;75.93;96476.81;4956970;28;20601;-72
2021/09/03 01:57:43;;;;;;;8.70;6.47;;;14.50;74.60;;;13.29;76.03;96474.78;4929765;28;20062;-70
2021/09/03 02:00:09;;;;;;;7.97;6.72;;;14.40;74.80;;;13.28;75.92;96478.44;4968089;28;20061;-70
2021/09/03 02:02:35;;;;;;;8.10;6.55;;;14.40;74.60;;;13.26;75.65;96481.28;4962573;28;20097;-70
2021/09/03 02:05:01;;;;;;;8.85;6.47;;;14.40;74.70;;;13.22;75.90;96477.41;4969704;28;20553;-70
2021/09/03 02:07:26;;;;;;;8.48;6.30;;;14.40;74.60;;;13.21;76.23;96475.78;4966086;28;20538;-71
2021/09/03 02:09:52;;;;;;;8.18;6.60;;;14.40;74.70;;;13.17;76.27;96472.72;4968249;28;20101;-70
2021/09/03 02:12:18;;;;;;;9.05;6.55;;;14.30;74.80;;;13.13;76.14;96471.44;4962137;28;20043;-70
2021/09/03 02:14:44;;;;;;;10.20;6.88;;;14.20;74.90;;;13.09;76.32;96479.94;4969482;28;20035;-70
2021/09/03 02:17:10;;;;;;;10.65;6.60;;;14.10;75.00;;;13.06;75.98;96469.75;4966031;28;20114;-70
2021/09/03 02:19:36;;;;;;;8.02;6.80;;;14.10;75.00;;;13.01;76.36;96466.91;4969262;28;20053;-71
2021/09/03 02:22:02;;;;;;;7.78;6.82;;;14.10;75.30;;;12.97;75.65;96465.66;4958994;28;20117;-70
2021/09/03 02:24:28;;;;;;;26.98;21.88;;;14.10;75.20;;;12.92;76.43;96462.78;4960937;28;20125;-70
2021/09/03 02:26:55;;;;;;;21.25;16.45;;;14.10;75.70;;;12.89;76.46;96464.78;4965165;28;20039;-70
2021/09/03 02:29:21;;;;;;;12.20;10.20;;;14.00;75.80;;;12.86;76.96;96473.09;4966430;28;20169;-70
2021/09/03 02:31:46;;;;;;;13.30;10.45;;;14.00;75.70;;;12.84;76.88;96469.03;4954338;28;20130;-70
2021/09/03 02:34:12;;;;;;;12.82;10.65;;;14.00;75.60;;;12.78;76.39;96467.97;4962145;28;20066;-70
2021/09/03 02:36:38;;;;;;;22.55;16.20;;;13.90;75.60;;;12.73;76.60;96475.66;4940296;28;20090;-70
2021/09/03 02:39:05;;;;;;;11.18;8.95;;;13.90;75.70;;;12.71;76.05;96479.50;4973813;28;20042;-70
2021/09/03 02:41:31;;;;;;;10.38;7.43;;;13.90;75.70;;;12.67;76.95;96481.69;4953761;28;20042;-70
2021/09/03 02:43:56;;;;;;;10.02;7.53;;;13.80;76.00;;;12.65;77.33;96478.44;4951733;28;20043;-70
2021/09/03 02:46:22;;;;;;;9.63;7.43;;;13.80;76.30;;;12.58;76.99;96473.13;4968407;28;20046;-70
2021/09/03 02:48:48;;;;;;;9.15;7.07;;;13.80;76.30;;;12.56;77.94;96474.31;4966466;28;20058;-70
2021/09/03 02:51:14;;;;;;;8.98;6.93;;;13.80;76.30;;;12.54;77.61;96471.06;4961988;28;20030;-70
2021/09/03 02:53:39;;;;;;;10.18;7.45;;;13.70;76.60;;;12.52;77.92;96481.81;4945887;28;20063;-70
2021/09/03 02:56:05;;;;;;;12.13;9.57;;;13.70;76.60;;;12.50;78.07;96472.47;4951534;28;20129;-70
2021/09/03 02:58:31;;;;;;;44.75;36.17;;;13.70;76.60;;;12.48;78.11;96463.94;4967952;28;20114;-70
2021/09/03 03:00:57;;;;;;;32.17;23.95;;;13.70;77.00;;;12.46;78.67;96452.75;4967243;28;20031;-70
2021/09/03 03:03:22;;;;;;;12.77;10.00;;;13.70;77.10;;;12.44;78.45;96460.00;4955225;28;20034;-70
2021/09/03 03:05:48;;;;;;;9.77;7.80;;;13.60;77.00;;;12.39;78.68;96459.78;4967851;28;20126;-70
2021/09/03 03:08:14;;;;;;;10.57;8.13;;;13.60;77.20;;;12.35;78.45;96455.91;4962429;28;20065;-70
2021/09/03 03:10:39;;;;;;;9.63;7.28;;;13.50;77.20;;;12.32;78.20;96456.28;4962729;28;20035;-70
2021/09/03 03:15:50;;;;;;;12.07;7.18;;;13.50;76.60;;;12.26;78.04;96460.50;4948433;28;20050;-70
2021/09/03 03:18:16;;;;;;;11.73;7.50;;;13.50;76.30;;;12.22;78.18;96462.72;4954377;28;20093;-71
2021/09/03 03:20:43;;;;;;;10.57;8.20;;;13.40;76.50;;;12.18;77.86;96464.06;4952421;28;20141;-70
2021/09/03 03:23:08;;;;;;;12.70;8.48;;;13.30;76.70;;;12.17;78.42;96465.06;4949889;28;20658;-70
2021/09/03 03:25:34;;;;;;;18.05;12.70;;;13.30;76.80;;;12.14;78.22;96457.56;4960399;28;20066;-70
2021/09/03 03:28:00;;;;;;;29.98;24.65;;;13.30;77.00;;;12.11;78.73;96452.66;4947878;28;20125;-70
2021/09/03 03:30:25;;;;;;;33.58;28.48;;;13.40;77.10;;;12.10;78.88;96448.38;4951739;28;20090;-70
2021/09/03 03:32:51;;;;;;;14.95;12.30;;;13.40;77.10;;;12.07;79.16;96443.50;4947037;28;20164;-70
2021/09/03 03:35:17;;;;;;;10.70;9.23;;;13.30;76.70;;;12.05;78.23;96450.78;4964036;28;20090;-70
2021/09/03 03:37:43;;;;;;;11.18;8.85;;;13.20;76.70;;;12.00;78.30;96447.91;4981432;28;20043;-70
2021/09/03 03:40:09;;;;;;;9.60;8.00;;;13.10;76.90;;;11.94;78.79;96446.00;4948952;28;20406;-70
2021/09/03 03:42:35;;;;;;;9.77;7.70;;;13.10;76.90;;;11.89;78.44;96445.75;4961061;28;20035;-70
2021/09/03 03:45:01;;;;;;;10.98;8.20;;;13.00;77.10;;;11.85;78.74;96455.06;4966381;28;20467;-70
2021/09/03 03:47:27;;;;;;;10.82;8.23;;;13.00;77.10;;;11.80;78.49;96442.44;4952317;28;20050;-70
2021/09/03 03:49:52;;;;;;;10.48;8.32;;;12.90;76.90;;;11.71;78.94;96432.97;4937663;28;20563;-70
2021/09/03 03:52:18;;;;;;;10.43;7.97;;;12.90;76.90;;;11.71;78.12;96445.34;4962252;28;20046;-70
2021/09/03 03:54:44;;;;;;;10.65;8.45;;;12.80;77.10;;;11.68;78.80;96440.44;4967054;28;20140;-70
2021/09/03 03:57:09;;;;;;;12.13;8.45;;;12.80;77.20;;;11.64;78.37;96438.19;4968715;28;20063;-70
2021/09/03 03:59:35;;;;;;;11.55;9.20;;;12.70;77.30;;;11.60;79.00;96431.66;4967383;28;20176;-70
2021/09/03 04:02:01;;;;;;;12.52;9.35;;;12.70;77.60;;;11.56;78.52;96437.50;4963398;28;20039;-70
2021/09/03 04:04:27;;;;;;;13.52;9.40;;;12.60;77.60;;;11.51;78.42;96427.50;4963255;28;20114;-71
2021/09/03 04:06:52;;;;;;;10.35;8.63;;;12.60;77.80;;;11.50;78.83;96430.31;4942815;28;20074;-70
2021/09/03 04:09:18;;;;;;;12.35;8.65;;;12.60;77.50;;;11.47;79.66;96435.97;4957712;28;20118;-70
2021/09/03 04:11:46;;;;;;;12.30;8.88;;;12.60;77.50;;;11.43;78.61;96439.97;4963691;28;20090;-70
2021/09/03 04:14:12;;;;;;;10.30;8.63;;;12.60;77.60;;;11.39;79.00;96433.47;4968542;28;20031;-70
2021/09/03 04:16:38;;;;;;;12.80;9.43;;;12.60;77.90;;;11.38;78.97;96432.66;4966366;28;20046;-70
2021/09/03 04:19:04;;;;;;;10.00;8.43;;;12.60;78.10;;;11.39;79.27;96446.63;4954258;28;20051;-70
2021/09/03 04:21:30;;;;;;;14.30;9.77;;;12.60;78.20;;;11.36;80.08;96442.56;4934856;29;20491;-70
2021/09/03 04:23:55;;;;;;;11.68;8.75;;;12.60;78.30;;;11.35;80.01;96448.81;4938775;28;20035;-70
2021/09/03 04:26:21;;;;;;;12.13;9.02;;;12.60;78.30;;;11.34;80.44;96449.81;4961485;28;20058;-71
2021/09/03 04:28:47;;;;;;;11.65;9.43;;;12.60;78.50;;;11.32;80.49;96443.94;4953929;28;20057;-70
2021/09/03 04:31:13;;;;;;;10.85;9.38;;;12.60;78.40;;;11.31;79.67;96445.72;4943020;28;20039;-70
2021/09/03 04:33:39;;;;;;;11.90;9.18;;;12.60;78.60;;;11.33;80.33;96448.19;4962574;28;20406;-70
2021/09/03 04:36:04;;;;;;;11.80;9.32;;;12.60;78.80;;;11.34;80.52;96442.75;4958780;28;20082;-71
2021/09/03 04:38:31;;;;;;;11.55;9.57;;;12.60;79.00;;;11.37;81.21;96443.38;4951441;28;20043;-71
2021/09/03 04:40:57;;;;;;;10.95;9.20;;;12.60;79.20;;;11.36;80.71;96437.28;4964695;28;20053;-71
2021/09/03 04:43:23;;;;;;;13.07;9.23;;;12.60;79.10;;;11.38;80.62;96440.53;4965305;28;20109;-71
2021/09/03 04:45:49;;;;;;;13.30;9.25;;;12.60;79.00;;;11.39;80.53;96438.72;4932718;28;20062;-71
2021/09/03 04:48:15;;;;;;;10.70;8.77;;;12.70;78.80;;;11.38;80.62;96448.44;4954075;28;20197;-70
2021/09/03 04:50:41;;;;;;;9.82;8.65;;;12.60;78.70;;;11.41;80.63;96447.25;4967258;28;20050;-70
2021/09/03 04:53:07;;;;;;;12.75;9.15;;;12.70;78.60;;;11.39;80.77;96449.25;4951568;28;20098;-71
2021/09/03 04:55:33;;;;;;;10.98;8.55;;;12.70;78.70;;;11.40;81.12;96456.97;4959265;28;20036;-70
2021/09/03 04:57:58;;;;;;;11.02;8.63;;;12.70;78.70;;;11.40;81.28;96437.72;4969633;28;20043;-70
2021/09/03 05:00:24;;;;;;;11.63;9.20;;;12.70;78.80;;;11.40;82.03;96445.63;4958547;28;20069;-71
2021/09/03 05:02:50;;;;;;;12.10;8.68;;;12.70;79.10;;;11.41;82.15;96448.06;4964875;28;20174;-72
2021/09/03 05:05:16;;;;;;;12.85;9.38;;;12.70;79.00;;;11.40;81.91;96441.16;4961961;28;20054;-72
2021/09/03 05:07:42;;;;;;;12.52;10.05;;;12.70;79.10;;;11.43;81.93;96440.78;4931446;29;20035;-71
2021/09/03 05:10:09;;;;;;;12.50;10.32;;;12.70;79.30;;;11.42;82.22;96438.34;4947029;28;20537;-71
2021/09/03 05:12:35;;;;;;;12.07;9.60;;;12.70;79.50;;;11.41;81.89;96434.91;4972089;28;20043;-72
2021/09/03 05:15:06;;;;;;;12.23;9.70;;;12.80;79.50;;;11.46;82.34;96440.41;4965153;28;20082;-72
2021/09/03 05:17:32;;;;;;;11.65;9.05;;;12.80;79.50;;;11.49;81.72;96444.50;4940325;28;20114;-70
2021/09/03 05:19:58;;;;;;;15.05;9.55;;;12.90;79.50;;;11.53;82.32;96443.13;4959884;28;20065;-71
2021/09/03 05:22:24;;;;;;;11.68;9.50;;;12.90;79.50;;;11.57;82.69;96444.41;4950908;28;20518;-72
2021/09/03 05:24:49;;;;;;;11.68;9.05;;;12.90;79.60;;;11.59;82.53;96445.03;4956509;28;20513;-72
2021/09/03 05:27:15;;;;;;;12.02;9.95;;;13.00;79.60;;;11.61;82.46;96449.09;4966546;28;20045;-71
2021/09/03 05:29:41;;;;;;;11.75;9.65;;;13.10;79.70;;;11.65;82.47;96445.09;4971771;28;20035;-71
2021/09/03 05:32:06;;;;;;;11.60;9.80;;;13.10;79.60;;;11.69;82.98;96448.16;4968570;28;20076;-71
2021/09/03 05:34:32;;;;;;;13.27;9.98;;;13.20;79.60;;;11.73;83.65;96441.50;4968140;28;20034;-68
2021/09/03 05:36:58;;;;;;;11.75;9.73;;;13.20;79.60;;;11.76;83.52;96438.50;4969434;28;20035;-71
2021/09/03 05:39:24;;;;;;;12.07;9.88;;;13.30;79.70;;;11.87;83.88;96447.78;4953803;28;20550;-68
2021/09/03 05:41:49;;;;;;;11.30;9.75;;;13.40;79.60;;;11.95;84.05;96439.72;4965455;28;20035;-69
2021/09/03 05:44:15;;;;;;;11.63;9.38;;;13.60;79.40;;;12.03;83.51;96436.16;4967499;28;20459;-74
2021/09/03 05:46:41;;;;;;;13.45;9.30;;;13.70;79.20;;;12.15;83.79;96439.91;4959835;28;20094;-74
2021/09/03 05:49:06;;;;;;;12.13;9.10;;;13.90;78.90;;;12.25;83.72;96446.50;4967208;28;20051;-74
2021/09/03 05:51:32;;;;;;;12.15;9.02;;;14.00;78.70;;;12.37;83.65;96448.59;4941071;29;20036;-73
2021/09/03 05:53:58;;;;;;;11.35;9.32;;;14.10;78.30;;;12.44;83.57;96444.19;4946966;28;20031;-73
2021/09/03 05:56:24;;;;;;;11.80;8.98;;;14.20;78.00;;;12.54;83.55;96449.97;4965842;28;20043;-73
2021/09/03 05:58:49;;;;;;;10.15;8.63;;;14.30;78.10;;;12.63;83.15;96432.13;4965892;28;20034;-73
2021/09/03 06:01:15;;;;;;;13.32;9.13;;;14.40;78.00;;;12.71;83.77;96448.66;4968567;28;20077;-74
2021/09/03 06:03:41;;;;;;;12.85;9.40;;;14.50;77.70;;;12.80;83.06;96449.31;4954611;28;20098;-74
2021/09/03 06:06:07;;;;;;;15.32;8.95;;;14.60;77.50;;;12.87;82.72;96450.97;4942263;28;20039;-73
2021/09/03 06:08:32;;;;;;;10.68;9.02;;;14.70;77.00;;;12.95;82.32;96451.84;4965601;28;20424;-74
2021/09/03 06:10:58;;;;;;;12.50;8.68;;;14.70;76.40;;;13.01;81.90;96445.78;4962509;28;20094;-73
2021/09/03 06:13:24;;;;;;;15.93;8.90;;;14.80;76.10;;;13.09;81.95;96448.25;4937279;29;20035;-74
2021/09/03 06:15:49;;;;;;;11.32;8.70;;;14.80;76.30;;;13.14;81.67;96445.84;4958135;28;20081;-73
2021/09/03 06:18:15;;;;;;;12.25;8.68;;;14.80;76.30;;;13.19;81.27;96451.38;4967427;28;20145;-73
2021/09/03 06:20:41;;;;;;;12.82;8.65;;;14.90;76.20;;;13.26;81.37;96454.84;4936086;29;20067;-73
2021/09/03 06:23:07;;;;;;;10.73;8.57;;;15.00;76.20;;;13.35;81.95;96461.63;4938596;28;20057;-72
2021/09/03 06:25:33;;;;;;;11.38;8.55;;;15.10;76.30;;;13.42;81.69;96456.34;4945529;28;20412;-73
2021/09/03 06:27:59;;;;;;;10.60;9.00;;;15.10;75.90;;;13.47;81.09;96451.28;4931975;28;20466;-72
2021/09/03 06:30:25;;;;;;;12.90;9.07;;;15.10;75.80;;;13.53;81.18;96445.19;4940549;28;20035;-70
2021/09/03 06:32:50;;;;;;;10.15;8.05;;;15.20;75.30;;;13.60;81.33;96451.34;4960304;28;20035;-71
2021/09/03 06:35:16;;;;;;;10.05;8.45;;;15.30;75.30;;;13.67;80.93;96451.34;4959248;28;20039;-71
2021/09/03 06:37:42;;;;;;;12.32;9.07;;;15.40;75.30;;;13.73;80.58;96450.53;4953140;28;20421;-71
2021/09/03 06:40:08;;;;;;;10.40;8.52;;;15.50;74.90;;;13.81;79.95;96449.56;4953590;28;20419;-69
2021/09/03 06:42:34;;;;;;;12.60;8.45;;;15.50;74.60;;;13.87;79.88;96446.09;4957233;28;20035;-70
2021/09/03 06:45:00;;;;;;;12.25;8.45;;;15.60;75.00;;;13.96;80.49;96452.81;4959634;28;20055;-71
2021/09/03 06:47:27;;;;;;;15.40;11.00;;;15.60;74.00;;;14.00;80.05;96449.56;4964027;28;20043;-72
2021/09/03 06:49:52;;;;;;;13.35;10.30;;;15.70;74.40;;;14.14;80.06;96446.94;4969235;28;20074;-70
2021/09/03 06:52:28;;;;;;;21.27;15.10;;;16.00;74.30;;;14.25;79.99;96443.69;4951760;28;20054;-69
2021/09/03 06:54:57;;;;;;;13.40;9.88;;;16.10;74.20;;;14.38;79.44;96444.50;4964819;28;20035;-71
2021/09/03 06:57:22;;;;;;;11.73;9.15;;;16.20;73.10;;;14.48;79.00;96445.94;4950710;28;20082;-71
2021/09/03 06:59:48;;;;;;;14.43;11.65;;;16.30;72.50;;;14.59;78.28;96448.00;4955921;28;20163;-68
2021/09/03 07:02:15;;;;;;;15.50;10.27;;;16.50;71.80;;;14.71;78.67;96438.41;4960583;28;20062;-70
2021/09/03 07:04:41;;;;;;;11.75;7.78;;;16.60;71.50;;;14.85;77.80;96440.00;4975171;28;20046;-73
2021/09/03 07:07:06;;;;;;;9.18;7.85;;;16.80;71.20;;;15.00;77.15;96442.44;4949255;28;20039;-73
2021/09/03 07:09:32;;;;;;;10.70;7.65;;;17.10;70.60;;;15.13;77.04;96442.38;4950746;28;20159;-73
2021/09/03 07:11:58;;;;;;;12.18;8.20;;;17.10;69.40;;;15.32;77.73;96440.69;4935633;28;20070;-73
2021/09/03 07:14:24;;;;;;;9.07;7.25;;;17.40;69.20;;;15.50;76.55;96447.94;4971856;28;20039;-73
2021/09/03 07:16:49;;;;;;;9.63;7.53;;;17.70;68.90;;;15.71;75.91;96450.31;4968183;28;20121;-73
2021/09/03 07:19:15;;;;;;;11.82;7.05;;;18.00;67.70;;;15.92;76.12;96450.00;4959104;28;20039;-73
2021/09/03 07:21:42;;;;;;;11.55;9.15;;;18.20;66.00;;;16.13;74.75;96450.69;4934674;29;20082;-73
2021/09/03 07:24:08;;;;;;;15.55;11.15;;;18.50;65.00;;;16.35;74.27;96446.63;4932680;28;20347;-74
2021/09/03 07:26:34;;;;;;;15.88;10.73;;;18.80;64.50;;;16.57;73.39;96451.56;4926540;29;20036;-73
2021/09/03 07:28:59;;;;;;;10.70;7.75;;;19.00;63.40;;;16.78;73.13;96445.88;4947668;28;20091;-73
2021/09/03 07:31:26;;;;;;;12.63;7.65;;;19.10;62.20;;;16.95;72.42;96444.25;4953021;28;20036;-72
2021/09/03 07:33:51;;;;;;;8.68;6.53;;;19.50;61.80;;;17.17;71.79;96446.50;4946429;28;20035;-71
2021/09/03 07:36:17;;;;;;;6.95;6.18;;;19.70;60.80;;;17.41;70.56;96440.28;4960584;28;20110;-68
2021/09/03 07:38:43;;;;;;;7.93;6.57;;;20.00;59.90;;;17.66;70.20;96437.53;4935117;28;20031;-70
2021/09/03 07:41:09;;;;;;;7.63;6.20;;;20.20;58.90;;;17.87;70.04;96429.03;4952488;28;20093;-71
2021/09/03 07:43:34;;;;;;;11.48;7.10;;;20.50;58.70;;;18.12;69.81;96441.41;4953478;28;20055;-70
2021/09/03 07:46:00;;;;;;;9.63;6.88;;;20.70;57.50;;;18.32;68.54;96444.56;4953438;28;20031;-70
2021/09/03 07:48:26;;;;;;;9.27;5.90;;;21.00;56.40;;;18.55;68.43;96435.78;4953520;28;20065;-71
2021/09/03 07:50:52;;;;;;;8.68;6.30;;;21.30;56.10;;;18.76;68.28;96431.75;4968936;28;20054;-71
2021/09/03 07:53:17;;;;;;;8.57;6.57;;;21.60;55.70;;;19.00;67.68;96432.56;4956182;28;20576;-71
2021/09/03 07:55:43;;;;;;;7.72;6.00;;;21.80;54.90;;;19.24;67.30;96426.16;4985138;28;20031;-71
2021/09/03 07:58:09;;;;;;;9.13;6.22;;;22.10;55.00;;;19.47;66.54;96426.13;4966503;28;20031;-71
2021/09/03 08:00:35;;;;;;;7.60;6.03;;;22.30;53.20;;;19.69;65.26;96428.13;4941480;28;20546;-71
2021/09/03 08:03:01;;;;;;;7.57;5.60;;;22.60;51.70;;;19.86;64.30;96434.31;4969508;28;20041;-71
2021/09/03 08:05:27;;;;;;;9.38;6.10;;;22.70;51.40;;;20.05;63.55;96425.06;4933927;28;20044;-71
2021/09/03 08:07:53;;;;;;;10.00;6.03;;;22.90;50.30;;;20.24;63.66;96430.19;4948128;28;20042;-71
2021/09/03 08:10:19;;;;;;;8.75;5.07;;;23.10;50.20;;;20.46;63.67;96437.28;4934512;29;20059;-71
2021/09/03 08:12:45;;;;;;;7.88;5.47;;;23.50;49.90;;;20.70;62.63;96435.25;4934041;29;20035;-71
2021/09/03 08:15:11;;;;;;;8.07;5.45;;;23.70;49.20;;;20.94;61.82;96432.38;4950663;28;20046;-72
2021/09/03 08:17:37;;;;;;;12.18;8.70;;;24.00;49.20;;;21.15;61.45;96423.56;4951366;28;20102;-71
2021/09/03 08:20:04;;;;;;;9.63;7.57;;;24.20;47.30;;;21.34;60.11;96418.78;4934793;28;20047;-71
2021/09/03 08:22:29;;;;;;;11.32;7.65;;;24.30;46.80;;;21.51;59.47;96426.75;4934009;29;20174;-71
2021/09/03 08:24:55;;;;;;;6.60;5.40;;;24.40;46.40;;;21.62;58.77;96428.47;4966271;28;20451;-71
2021/09/03 08:27:21;;;;;;;7.57;6.25;;;24.30;45.60;;;21.76;58.68;96428.91;4934067;29;20590;-71
2021/09/03 08:29:47;;;;;;;7.72;5.57;;;24.50;46.10;;;21.88;58.63;96430.34;4953248;28;20573;-71
2021/09/03 08:32:13;;;;;;;6.75;5.32;;;24.70;46.20;;;22.07;57.97;96427.34;4950202;28;20114;-71
2021/09/03 08:34:39;;;;;;;10.02;7.18;;;24.90;45.70;;;22.25;57.41;96432.34;4950708;28;20645;-72
2021/09/03 08:37:05;;;;;;;9.95;7.60;;;25.10;45.80;;;22.43;57.06;96429.28;4937470;28;20031;-71
2021/09/03 08:39:31;;;;;;;10.35;7.82;;;25.30;46.00;;;22.61;56.67;96426.19;4968421;28;20129;-70
2021/09/03 08:41:56;;;;;;;6.93;5.70;;;25.40;44.00;;;22.75;55.68;96437.31;4948817;28;20031;-71
2021/09/03 08:44:22;;;;;;;6.93;5.18;;;25.50;44.10;;;22.92;55.68;96431.81;4969311;28;20063;-71
2021/09/03 08:46:48;;;;;;;7.05;5.60;;;25.70;43.80;;;23.05;55.35;96433.22;4943403;28;20031;-74
2021/09/03 08:49:14;;;;;;;8.82;5.90;;;25.80;42.60;;;23.23;54.76;96425.53;4972676;28;20035;-64
2021/09/03 08:51:40;;;;;;;7.70;5.43;;;25.80;42.20;;;23.42;53.71;96435.84;4971788;28;20042;-64
2021/09/03 08:54:05;;;;;;;9.93;5.38;;;26.20;42.60;;;23.67;53.55;96432.47;4949603;28;20039;-66
2021/09/03 08:56:31;;;;;;;8.15;5.72;;;26.50;42.70;;;23.91;52.88;96432.81;4962189;28;20132;-69
2021/09/03 08:58:57;;;;;;;7.13;5.38;;;26.60;42.10;;;24.08;52.41;96439.56;4969327;28;20081;-71
2021/09/03 09:01:23;;;;;;;9.57;5.75;;;26.80;40.90;;;24.28;51.93;96438.81;4964524;28;20039;-69
2021/09/03 09:03:51;;;;;;;7.53;5.30;;;26.90;40.00;;;24.50;50.54;96437.75;4971656;28;20031;-69
2021/09/03 09:06:25;;;;;;;7.60;5.35;;;27.00;39.90;;;24.70;48.89;96424.31;4961569;28;20050;-69
2021/09/03 09:09:04;;;;;;;7.95;5.35;;;27.20;41.00;;;24.94;47.24;96424.53;4965368;28;20093;-70
2021/09/03 09:11:30;;;;;;;8.25;6.43;;;27.40;39.30;;;25.14;49.70;96434.50;4952288;28;20049;-71
2021/09/03 09:14:04;;;;;;;7.85;6.40;;;27.70;38.70;;;25.34;46.40;96420.94;4954347;28;20035;-70
2021/09/03 09:16:30;;;;;;;7.15;5.72;;;27.60;38.10;;;25.48;48.56;96421.16;4961795;28;20035;-69
2021/09/03 09:19:04;;;;;;;6.90;5.50;;;27.90;38.20;;;25.67;45.36;96424.06;4952953;28;20057;-70
2021/09/03 09:21:31;;;;;;;7.82;5.60;;;28.00;38.60;;;25.86;47.12;96425.06;4959965;28;20042;-72
2021/09/03 09:24:14;;;;;;;8.00;4.95;;;28.20;38.60;;;26.07;45.47;96421.16;4953361;28;20459;-71
2021/09/03 09:26:56;;;;;;;6.03;5.13;;;28.60;38.60;;;26.34;43.95;96414.50;4951579;28;20069;-72
2021/09/03 09:29:23;;;;;;;7.43;5.63;;;28.90;36.90;;;26.56;45.70;96414.91;4968543;28;20414;-73
2021/09/03 09:31:57;;;;;;;6.60;5.13;;;29.00;37.20;;;26.72;45.44;96413.69;4967474;28;20043;-74
2021/09/03 09:34:36;;;;;;;9.68;5.15;;;29.10;38.00;;;26.96;43.38;96408.31;4947292;28;20419;-76
2021/09/03 09:37:08;;;;;;;6.82;4.53;;;29.40;37.10;;;27.08;42.96;96416.06;4958808;28;20551;-76
2021/09/03 09:39:49;;;;;;;6.70;4.95;;;29.50;36.30;;;27.30;42.46;96405.53;4965260;28;20515;-69
2021/09/03 09:42:22;;;;;;;6.45;5.30;;;29.80;36.00;;;27.45;42.80;96397.25;4934708;28;20046;-75
2021/09/03 09:45:04;;;;;;;8.25;4.60;;;30.00;35.50;;;27.67;41.54;96402.16;4953146;28;20043;-76
2021/09/03 09:47:30;;;;;;;6.90;5.30;;;30.10;35.90;;;27.86;42.92;96402.16;4952963;28;20040;-76
2021/09/03 09:49:56;;;;;;;7.40;4.80;;;30.30;34.20;;;27.95;42.57;96400.41;4949062;28;20505;-75
2021/09/03 09:52:37;;;;;;;6.70;4.30;;;30.40;34.40;;;28.13;40.59;96392.59;4938182;28;20469;-74
2021/09/03 09:55:06;;;;;;;5.78;4.70;;;30.60;34.80;;;28.25;41.34;96398.38;4966589;28;20554;-72
2021/09/03 09:57:33;;;;;;;6.70;5.07;;;30.90;35.00;;;28.44;42.11;96391.03;4952403;28;20055;-72
2021/09/03 10:00:05;;;;;;;6.80;5.13;;;31.10;34.00;;;28.61;40.50;96391.28;4953937;28;20028;-73
2021/09/03 10:02:34;;;;;;;8.63;5.30;;;31.30;34.50;;;28.88;39.93;96384.34;4959517;28;20123;-73
2021/09/03 10:05:03;;;;;;;6.07;4.35;;;31.60;33.10;;;29.12;39.46;96389.59;4952152;28;20035;-72
2021/09/03 10:07:29;;;;;;;6.60;4.83;;;32.00;32.60;;;29.39;40.56;96377.94;4939196;28;20079;-73
2021/09/03 10:09:54;;;;;;;6.78;4.93;;;32.10;31.70;;;29.78;40.42;96372.78;4938911;28;20043;-77
2021/09/03 10:12:20;;;;;;;7.47;4.57;;;32.30;32.20;;;30.20;39.67;96378.13;4950994;28;20141;-76
2021/09/03 10:14:46;;;;;;;6.10;4.53;;;32.70;32.20;;;30.62;39.28;96377.66;4953120;28;20467;-73